sensor_id;sensor_type;location;lat;lon;timestamp;pressure;altitude;pressure_sealevel;temperature;humidity
41947;BME280;27638;42.184;24.848;2023-02-01T00:01:49;99945.22;;;4.37;76.14
41947;BME280;27638;42.184;24.848;2023-02-01T00:04:15;99945.56;;;4.33;76.45
41947;BME280;27638;42.184;24.848;2023-02-01T00:06:40;99941.41;;;4.30;76.41
41947;BME280;27638;42.184;24.848;2023-02-01T00:09:06;99943.31;;;4.28;76.39
41947;BME280;27638;42.184;24.848;2023-02-01T00:11:31;99945.22;;;4.26;76.46
41947;BME280;27638;42.184;24.848;2023-02-01T00:13:57;99944.25;;;4.27;76.46
41947;BME280;27638;42.184;24.848;2023-02-01T00:16:28;99949.38;;;4.29;76.39
41947;BME280;27638;42.184;24.848;2023-02-01T00:19:20;99958.31;;;4.26;76.48
41947;BME280;27638;42.184;24.848;2023-02-01T00:21:44;99954.75;;;4.27;76.19
41947;BME280;27638;42.184;24.848;2023-02-01T00:24:10;99948.69;;;4.38;75.59
41947;BME280;27638;42.184;24.848;2023-02-01T00:26:39;99956.75;;;4.24;75.48
41947;BME280;27638;42.184;24.848;2023-02-01T00:29:09;99950.72;;;4.34;75.23
41947;BME280;27638;42.184;24.848;2023-02-01T00:31:35;99959.41;;;4.35;74.86
41947;BME280;27638;42.184;24.848;2023-02-01T00:34:00;99962.25;;;4.32;75.03
41947;BME280;27638;42.184;24.848;2023-02-01T00:36:26;99961.91;;;4.36;75.18
41947;BME280;27638;42.184;24.848;2023-02-01T00:38:53;99968.59;;;4.40;75.17
41947;BME280;27638;42.184;24.848;2023-02-01T00:41:20;99961.09;;;4.47;74.41
41947;BME280;27638;42.184;24.848;2023-02-01T00:43:46;99957.63;;;4.46;74.30
41947;BME280;27638;42.184;24.848;2023-02-01T00:46:13;99966.94;;;4.51;74.47
41947;BME280;27638;42.184;24.848;2023-02-01T00:48:39;99970.16;;;4.54;74.57
41947;BME280;27638;42.184;24.848;2023-02-01T00:51:13;99968.25;;;4.56;74.47
41947;BME280;27638;42.184;24.848;2023-02-01T00:53:40;99970.16;;;4.54;74.29
41947;BME280;27638;42.184;24.848;2023-02-01T00:56:05;99969.56;;;4.51;74.37
41947;BME280;27638;42.184;24.848;2023-02-01T00:58:31;99972.53;;;4.46;74.61
41947;BME280;27638;42.184;24.848;2023-02-01T01:03:27;99968.94;;;4.36;74.60
41947;BME280;27638;42.184;24.848;2023-02-01T01:05:56;99963.56;;;4.37;74.60
41947;BME280;27638;42.184;24.848;2023-02-01T01:08:22;99959.91;;;4.51;73.57
41947;BME280;27638;42.184;24.848;2023-02-01T01:10:47;99966.94;;;4.51;73.94
41947;BME280;27638;42.184;24.848;2023-02-01T01:13:14;99958.34;;;4.48;74.02
41947;BME280;27638;42.184;24.848;2023-02-01T01:15:40;99963.34;;;4.52;73.79
41947;BME280;27638;42.184;24.848;2023-02-01T01:18:06;99960.13;;;4.59;73.46
41947;BME280;27638;42.184;24.848;2023-02-01T01:20:38;99961.44;;;4.54;73.74
41947;BME280;27638;42.184;24.848;2023-02-01T01:23:07;99958.59;;;4.45;73.76
41947;BME280;27638;42.184;24.848;2023-02-01T01:25:36;99960.84;;;4.50;73.99
41947;BME280;27638;42.184;24.848;2023-02-01T01:28:02;99970.16;;;4.54;73.90
41947;BME280;27638;42.184;24.848;2023-02-01T01:30:27;99965.97;;;4.63;73.59
41947;BME280;27638;42.184;24.848;2023-02-01T01:32:53;99964.78;;;4.67;73.61
41947;BME280;27638;42.184;24.848;2023-02-01T01:35:18;99964.19;;;4.74;73.03
41947;BME280;27638;42.184;24.848;2023-02-01T01:37:43;99964.56;;;4.70;72.93
41947;BME280;27638;42.184;24.848;2023-02-01T01:40:09;99962.88;;;4.69;73.23
41947;BME280;27638;42.184;24.848;2023-02-01T01:42:42;99965.63;;;4.67;73.25
41947;BME280;27638;42.184;24.848;2023-02-01T01:47:38;99966.94;;;4.62;73.34
41947;BME280;27638;42.184;24.848;2023-02-01T01:50:08;99962.75;;;4.59;73.48
41947;BME280;27638;42.184;24.848;2023-02-01T01:52:35;99969.31;;;4.54;73.96
41947;BME280;27638;42.184;24.848;2023-02-01T01:55:02;99970.25;;;4.53;74.11
41947;BME280;27638;42.184;24.848;2023-02-01T01:57:38;99969.19;;;4.55;74.15
41947;BME280;27638;42.184;24.848;2023-02-01T02:00:09;99970.03;;;4.56;73.94
41947;BME280;27638;42.184;24.848;2023-02-01T02:02:37;99970.03;;;4.56;74.15
41947;BME280;27638;42.184;24.848;2023-02-01T02:05:03;99975.53;;;4.64;74.18
41947;BME280;27638;42.184;24.848;2023-02-01T02:07:32;99970.88;;;4.67;74.11
41947;BME280;27638;42.184;24.848;2023-02-01T02:10:00;99967.19;;;4.70;73.71
41947;BME280;27638;42.184;24.848;2023-02-01T02:12:27;99968.84;;;4.71;73.57
41947;BME280;27638;42.184;24.848;2023-02-01T02:14:53;99973.72;;;4.64;73.82
41947;BME280;27638;42.184;24.848;2023-02-01T02:17:44;99964.19;;;4.63;74.05
41947;BME280;27638;42.184;24.848;2023-02-01T02:34:28;99970.03;;;4.56;73.97
41947;BME280;27638;42.184;24.848;2023-02-01T02:39:55;99966.09;;;4.39;74.32
41947;BME280;27638;42.184;24.848;2023-02-01T02:45:41;99973.69;;;4.20;75.02
41947;BME280;27638;42.184;24.848;2023-02-01T02:51:25;99974.06;;;4.02;75.67
41947;BME280;27638;42.184;24.848;2023-02-01T02:54:11;99979.88;;;3.95;76.10
41947;BME280;27638;42.184;24.848;2023-02-01T02:56:58;99979.16;;;3.93;76.48
41947;BME280;27638;42.184;24.848;2023-02-01T02:59:44;99974.91;;;4.03;76.24
41947;BME280;27638;42.184;24.848;2023-02-01T03:02:30;99977.53;;;4.03;75.59
41947;BME280;27638;42.184;24.848;2023-02-01T03:05:15;99983.84;;;4.00;75.60
41947;BME280;27638;42.184;24.848;2023-02-01T03:13:58;99978.38;;;4.03;75.27
41947;BME280;27638;42.184;24.848;2023-02-01T03:16:30;99971.94;;;4.07;75.26
41947;BME280;27638;42.184;24.848;2023-02-01T03:24:06;99981.22;;;4.35;74.14
41947;BME280;27638;42.184;24.848;2023-02-01T03:26:36;99983.38;;;4.41;73.86
41947;BME280;27638;42.184;24.848;2023-02-01T03:29:11;99977.06;;;4.44;73.52
41947;BME280;27638;42.184;24.848;2023-02-01T03:31:38;99982.66;;;4.51;73.18
41947;BME280;27638;42.184;24.848;2023-02-01T03:34:04;99981.47;;;4.66;72.82
41947;BME280;27638;42.184;24.848;2023-02-01T03:36:30;99981.72;;;4.74;71.99
41947;BME280;27638;42.184;24.848;2023-02-01T03:39:04;99981.38;;;4.78;71.87
41947;BME280;27638;42.184;24.848;2023-02-01T03:41:37;99978.84;;;4.77;72.09
41947;BME280;27638;42.184;24.848;2023-02-01T03:44:31;99981.59;;;4.64;72.53
41947;BME280;27638;42.184;24.848;2023-02-01T03:47:05;99973.84;;;4.40;73.37
41947;BME280;27638;42.184;24.848;2023-02-01T03:49:36;99978.72;;;4.34;74.15
41947;BME280;27638;42.184;24.848;2023-02-01T03:52:06;99973.69;;;4.31;74.17
41947;BME280;27638;42.184;24.848;2023-02-01T03:54:33;99982.59;;;4.17;75.02
41947;BME280;27638;42.184;24.848;2023-02-01T03:57:02;99976.34;;;4.07;75.77
41947;BME280;27638;42.184;24.848;2023-02-01T03:59:29;99984.06;;;3.97;76.30
41947;BME280;27638;42.184;24.848;2023-02-01T04:01:55;99975.09;;;3.89;76.89
41947;BME280;27638;42.184;24.848;2023-02-01T04:04:20;99980.47;;;3.87;77.35
41947;BME280;27638;42.184;24.848;2023-02-01T04:06:47;99984.38;;;3.81;77.63
41947;BME280;27638;42.184;24.848;2023-02-01T04:09:12;99974.63;;;3.83;77.83
41947;BME280;27638;42.184;24.848;2023-02-01T04:11:38;99980.06;;;3.80;77.97
41947;BME280;27638;42.184;24.848;2023-02-01T04:14:03;99980.06;;;3.80;78.00
41947;BME280;27638;42.184;24.848;2023-02-01T04:16:30;99978.84;;;3.73;78.15
41947;BME280;27638;42.184;24.848;2023-02-01T04:18:56;99987.66;;;3.72;78.61
41947;BME280;27638;42.184;24.848;2023-02-01T04:21:22;99986.25;;;3.79;78.39
41947;BME280;27638;42.184;24.848;2023-02-01T04:23:48;99985.94;;;3.84;77.61
41947;BME280;27638;42.184;24.848;2023-02-01T04:26:13;99992.84;;;3.85;77.60
41947;BME280;27638;42.184;24.848;2023-02-01T04:28:39;99996.47;;;3.71;78.09
41947;BME280;27638;42.184;24.848;2023-02-01T04:31:04;99998.81;;;3.63;78.46
41947;BME280;27638;42.184;24.848;2023-02-01T04:33:30;100008.78;;;3.58;78.73
41947;BME280;27638;42.184;24.848;2023-02-01T04:35:55;100005.59;;;3.66;78.56
41947;BME280;27638;42.184;24.848;2023-02-01T04:38:21;99995.75;;;3.69;78.33
41947;BME280;27638;42.184;24.848;2023-02-01T04:40:47;100010.41;;;3.72;77.89
41947;BME280;27638;42.184;24.848;2023-02-01T04:43:13;100010.19;;;3.75;77.73
41947;BME280;27638;42.184;24.848;2023-02-01T04:45:38;100009.56;;;3.71;77.62
41947;BME280;27638;42.184;24.848;2023-02-01T04:48:04;100002.88;;;3.67;77.58
41947;BME280;27638;42.184;24.848;2023-02-01T04:50:29;99993.25;;;3.68;77.59
41947;BME280;27638;42.184;24.848;2023-02-01T04:52:55;100009.28;;;3.63;77.44
41947;BME280;27638;42.184;24.848;2023-02-01T04:55:20;100008.91;;;3.57;77.53
41947;BME280;27638;42.184;24.848;2023-02-01T04:57:46;100010.78;;;3.55;77.51
41947;BME280;27638;42.184;24.848;2023-02-01T05:00:11;100011.41;;;3.58;77.58
41947;BME280;27638;42.184;24.848;2023-02-01T05:02:38;100021.16;;;3.56;77.37
41947;BME280;27638;42.184;24.848;2023-02-01T05:05:04;100020.59;;;3.64;77.27
41947;BME280;27638;42.184;24.848;2023-02-01T05:07:29;100032.56;;;3.55;77.19
41947;BME280;27638;42.184;24.848;2023-02-01T05:09:55;100034.97;;;3.58;77.00
41947;BME280;27638;42.184;24.848;2023-02-01T05:12:20;100036.69;;;3.46;77.12
41947;BME280;27638;42.184;24.848;2023-02-01T05:15:05;100033.13;;;3.47;77.07
41947;BME280;27638;42.184;24.848;2023-02-01T05:17:30;100026.31;;;3.45;76.43
41947;BME280;27638;42.184;24.848;2023-02-01T05:19:55;100036.78;;;3.45;76.22
41947;BME280;27638;42.184;24.848;2023-02-01T05:22:21;100025.44;;;3.57;76.46
41947;BME280;27638;42.184;24.848;2023-02-01T05:24:46;100026.38;;;3.56;75.32
41947;BME280;27638;42.184;24.848;2023-02-01T05:27:12;100022.94;;;3.56;75.14
41947;BME280;27638;42.184;24.848;2023-02-01T05:29:37;100025.88;;;3.51;74.88
41947;BME280;27638;42.184;24.848;2023-02-01T05:32:03;100034.34;;;3.55;75.10
41947;BME280;27638;42.184;24.848;2023-02-01T05:34:28;100031.50;;;3.58;74.66
41947;BME280;27638;42.184;24.848;2023-02-01T05:36:54;100018.94;;;3.63;74.25
41947;BME280;27638;42.184;24.848;2023-02-01T05:39:19;100013.75;;;3.74;74.16
41947;BME280;27638;42.184;24.848;2023-02-01T05:41:45;100017.97;;;3.88;73.98
41947;BME280;27638;42.184;24.848;2023-02-01T05:44:11;100016.91;;;3.90;73.64
41947;BME280;27638;42.184;24.848;2023-02-01T05:46:36;100028.22;;;3.91;73.77
41947;BME280;27638;42.184;24.848;2023-02-01T05:49:02;100025.81;;;3.88;73.42
41947;BME280;27638;42.184;24.848;2023-02-01T05:51:28;100022.38;;;3.87;72.07
41947;BME280;27638;42.184;24.848;2023-02-01T05:53:53;100022.66;;;3.95;71.15
41947;BME280;27638;42.184;24.848;2023-02-01T05:56:19;100020.41;;;4.02;71.33
41947;BME280;27638;42.184;24.848;2023-02-01T05:58:44;100026.63;;;4.12;71.34
41947;BME280;27638;42.184;24.848;2023-02-01T06:01:09;100025.75;;;4.24;71.09
41947;BME280;27638;42.184;24.848;2023-02-01T06:03:35;100034.94;;;4.30;71.23
41947;BME280;27638;42.184;24.848;2023-02-01T06:06:01;100036.16;;;4.37;71.26
41947;BME280;27638;42.184;24.848;2023-02-01T06:08:27;100042.72;;;4.42;70.76
41947;BME280;27638;42.184;24.848;2023-02-01T06:11:04;100041.66;;;4.56;70.39
41947;BME280;27638;42.184;24.848;2023-02-01T06:13:30;100041.22;;;4.62;70.66
41947;BME280;27638;42.184;24.848;2023-02-01T06:15:55;100042.41;;;4.69;69.82
41947;BME280;27638;42.184;24.848;2023-02-01T06:18:23;100049.94;;;4.74;69.98
41947;BME280;27638;42.184;24.848;2023-02-01T06:20:53;100047.91;;;4.77;69.25
41947;BME280;27638;42.184;24.848;2023-02-01T06:23:19;100048.50;;;4.81;68.78
41947;BME280;27638;42.184;24.848;2023-02-01T06:25:44;100047.78;;;4.90;68.84
41947;BME280;27638;42.184;24.848;2023-02-01T06:28:10;100054.59;;;4.93;68.13
41947;BME280;27638;42.184;24.848;2023-02-01T06:30:35;100050.19;;;4.93;68.47
41947;BME280;27638;42.184;24.848;2023-02-01T06:33:01;100063.44;;;5.03;68.11
41947;BME280;27638;42.184;24.848;2023-02-01T06:35:26;100063.06;;;5.07;67.55
41947;BME280;27638;42.184;24.848;2023-02-01T06:37:51;100064.13;;;5.05;67.00
41947;BME280;27638;42.184;24.848;2023-02-01T06:40:17;100057.22;;;5.04;67.18
41947;BME280;27638;42.184;24.848;2023-02-01T06:42:42;100062.47;;;5.04;67.46
41947;BME280;27638;42.184;24.848;2023-02-01T06:45:08;100065.09;;;5.15;66.64
41947;BME280;27638;42.184;24.848;2023-02-01T06:47:34;100062.03;;;5.21;67.09
41947;BME280;27638;42.184;24.848;2023-02-01T06:49:59;100068.69;;;5.25;66.64
41947;BME280;27638;42.184;24.848;2023-02-01T06:52:25;100068.22;;;5.31;66.85
41947;BME280;27638;42.184;24.848;2023-02-01T06:54:50;100071.09;;;5.28;65.84
41947;BME280;27638;42.184;24.848;2023-02-01T06:57:15;100075.13;;;5.32;66.11
41947;BME280;27638;42.184;24.848;2023-02-01T06:59:41;100078.84;;;5.30;65.97
41947;BME280;27638;42.184;24.848;2023-02-01T07:02:10;100074.66;;;5.27;65.72
41947;BME280;27638;42.184;24.848;2023-02-01T07:04:36;100077.06;;;5.30;65.06
41947;BME280;27638;42.184;24.848;2023-02-01T07:07:01;100084.31;;;5.38;64.26
41947;BME280;27638;42.184;24.848;2023-02-01T07:09:27;100079.53;;;5.43;63.34
41947;BME280;27638;42.184;24.848;2023-02-01T07:11:52;100077.03;;;5.53;63.34
41947;BME280;27638;42.184;24.848;2023-02-01T07:14:18;100069.59;;;5.69;63.17
41947;BME280;27638;42.184;24.848;2023-02-01T07:16:43;100073.88;;;5.81;62.27
41947;BME280;27638;42.184;24.848;2023-02-01T07:19:08;100078.50;;;6.00;62.62
41947;BME280;27638;42.184;24.848;2023-02-01T07:21:34;100079.31;;;6.00;61.59
41947;BME280;27638;42.184;24.848;2023-02-01T07:23:59;100082.09;;;5.99;61.52
41947;BME280;27638;42.184;24.848;2023-02-01T07:26:25;100084.38;;;5.92;62.15
41947;BME280;27638;42.184;24.848;2023-02-01T07:28:50;100094.88;;;5.92;61.54
41947;BME280;27638;42.184;24.848;2023-02-01T07:31:18;100089.88;;;5.89;61.90
41947;BME280;27638;42.184;24.848;2023-02-01T07:33:46;100090.59;;;5.80;61.63
41947;BME280;27638;42.184;24.848;2023-02-01T07:36:13;100090.38;;;5.72;61.35
41947;BME280;27638;42.184;24.848;2023-02-01T07:38:39;100085.34;;;5.69;61.75
41947;BME280;27638;42.184;24.848;2023-02-01T07:41:05;100084.41;;;5.70;61.83
41947;BME280;27638;42.184;24.848;2023-02-01T07:43:31;100085.22;;;5.82;61.28
41947;BME280;27638;42.184;24.848;2023-02-01T07:45:58;100091.06;;;5.85;61.96
41947;BME280;27638;42.184;24.848;2023-02-01T07:48:25;100090.22;;;5.85;61.42
41947;BME280;27638;42.184;24.848;2023-02-01T07:51:05;100088.91;;;5.90;61.40
41947;BME280;27638;42.184;24.848;2023-02-01T07:53:32;100090.22;;;5.96;60.96
41947;BME280;27638;42.184;24.848;2023-02-01T07:55:58;100088.78;;;5.92;61.57
41947;BME280;27638;42.184;24.848;2023-02-01T07:58:25;100094.03;;;6.03;60.90
41947;BME280;27638;42.184;24.848;2023-02-01T08:00:51;100100.09;;;6.03;60.53
41947;BME280;27638;42.184;24.848;2023-02-01T08:03:35;100095.13;;;5.89;61.54
41947;BME280;27638;42.184;24.848;2023-02-01T08:06:01;100089.25;;;5.97;61.20
41947;BME280;27638;42.184;24.848;2023-02-01T08:08:26;100092.22;;;6.03;61.81
41947;BME280;27638;42.184;24.848;2023-02-01T08:10:58;100102.13;;;6.11;62.12
41947;BME280;27638;42.184;24.848;2023-02-01T08:13:24;100093.84;;;6.16;61.86
41947;BME280;27638;42.184;24.848;2023-02-01T08:15:49;100096.22;;;6.19;61.94
41947;BME280;27638;42.184;24.848;2023-02-01T08:18:15;100100.66;;;6.18;61.96
41947;BME280;27638;42.184;24.848;2023-02-01T08:20:43;100100.41;;;6.21;62.25
41947;BME280;27638;42.184;24.848;2023-02-01T08:23:11;100093.00;;;6.26;62.49
41947;BME280;27638;42.184;24.848;2023-02-01T08:25:36;100104.94;;;6.19;62.52
41947;BME280;27638;42.184;24.848;2023-02-01T08:28:04;100098.72;;;6.31;62.23
41947;BME280;27638;42.184;24.848;2023-02-01T08:30:29;100104.22;;;6.28;63.00
41947;BME280;27638;42.184;24.848;2023-02-01T08:32:55;100092.50;;;6.32;62.73
41947;BME280;27638;42.184;24.848;2023-02-01T08:35:20;100097.06;;;6.30;62.59
41947;BME280;27638;42.184;24.848;2023-02-01T08:37:46;100101.72;;;6.27;62.84
41947;BME280;27638;42.184;24.848;2023-02-01T08:40:11;100096.66;;;6.35;62.91
41947;BME280;27638;42.184;24.848;2023-02-01T08:42:38;100099.44;;;6.22;63.41
41947;BME280;27638;42.184;24.848;2023-02-01T08:45:26;100102.72;;;6.47;64.12
41947;BME280;27638;42.184;24.848;2023-02-01T08:47:54;100113.69;;;6.52;63.73
41947;BME280;27638;42.184;24.848;2023-02-01T08:50:21;100106.84;;;6.60;64.05
41947;BME280;27638;42.184;24.848;2023-02-01T08:52:47;100107.34;;;6.75;63.96
41947;BME280;27638;42.184;24.848;2023-02-01T08:55:13;100105.88;;;6.82;63.45
41947;BME280;27638;42.184;24.848;2023-02-01T08:57:39;100101.69;;;6.80;62.83
41947;BME280;27638;42.184;24.848;2023-02-01T09:00:06;100095.47;;;6.81;62.59
41947;BME280;27638;42.184;24.848;2023-02-01T09:02:33;100102.72;;;6.88;62.77
41947;BME280;27638;42.184;24.848;2023-02-01T09:04:58;100084.91;;;7.01;62.15
41947;BME280;27638;42.184;24.848;2023-02-01T09:07:24;100088.94;;;7.05;61.60
41947;BME280;27638;42.184;24.848;2023-02-01T09:09:49;100093.25;;;7.07;61.88
41947;BME280;27638;42.184;24.848;2023-02-01T09:12:15;100089.25;;;7.12;61.86
41947;BME280;27638;42.184;24.848;2023-02-01T09:14:40;100089.97;;;7.14;61.92
41947;BME280;27638;42.184;24.848;2023-02-01T09:17:06;100096.88;;;7.36;62.27
41947;BME280;27638;42.184;24.848;2023-02-01T09:19:31;100079.47;;;7.54;61.09
41947;BME280;27638;42.184;24.848;2023-02-01T09:21:57;100074.94;;;7.76;61.21
41947;BME280;27638;42.184;24.848;2023-02-01T09:24:23;100076.63;;;7.96;59.95
41947;BME280;27638;42.184;24.848;2023-02-01T09:26:49;100068.31;;;8.10;59.57
41947;BME280;27638;42.184;24.848;2023-02-01T09:29:14;100066.38;;;8.22;59.82
41947;BME280;27638;42.184;24.848;2023-02-01T09:31:40;100064.97;;;8.27;58.64
41947;BME280;27638;42.184;24.848;2023-02-01T09:34:06;100061.00;;;8.33;58.34
41947;BME280;27638;42.184;24.848;2023-02-01T09:36:32;100051.28;;;8.43;57.85
41947;BME280;27638;42.184;24.848;2023-02-01T09:38:58;100051.81;;;8.56;57.69
41947;BME280;27638;42.184;24.848;2023-02-01T09:46:34;100042.84;;;8.86;56.67
41947;BME280;27638;42.184;24.848;2023-02-01T09:49:15;100046.59;;;8.93;56.26
41947;BME280;27638;42.184;24.848;2023-02-01T09:51:45;100040.78;;;8.80;55.54
41947;BME280;27638;42.184;24.848;2023-02-01T09:56:54;100032.09;;;8.60;54.63
41947;BME280;27638;42.184;24.848;2023-02-01T10:01:59;100010.00;;;8.13;55.62
41947;BME280;27638;42.184;24.848;2023-02-01T10:04:25;100011.81;;;7.84;56.06
41947;BME280;27638;42.184;24.848;2023-02-01T10:26:27;99995.16;;;8.12;58.71
41947;BME280;27638;42.184;24.848;2023-02-01T10:28:58;99978.63;;;8.29;56.98
41947;BME280;27638;42.184;24.848;2023-02-01T10:31:28;99991.28;;;8.45;56.67
41947;BME280;27638;42.184;24.848;2023-02-01T10:33:59;99972.22;;;8.61;55.80
41947;BME280;27638;42.184;24.848;2023-02-01T10:36:35;99984.94;;;8.75;55.65
41947;BME280;27638;42.184;24.848;2023-02-01T10:39:04;99976.16;;;8.84;55.06
41947;BME280;27638;42.184;24.848;2023-02-01T10:41:37;99979.44;;;8.96;53.51
41947;BME280;27638;42.184;24.848;2023-02-01T10:44:09;99978.06;;;8.92;54.52
41947;BME280;27638;42.184;24.848;2023-02-01T10:46:36;99973.91;;;8.89;54.46
41947;BME280;27638;42.184;24.848;2023-02-01T10:49:04;99985.50;;;9.06;53.58
41947;BME280;27638;42.184;24.848;2023-02-01T10:54:16;99970.34;;;9.08;54.57
41947;BME280;27638;42.184;24.848;2023-02-01T10:56:44;99963.09;;;9.10;53.92
41947;BME280;27638;42.184;24.848;2023-02-01T10:59:23;99961.97;;;9.13;54.63
41947;BME280;27638;42.184;24.848;2023-02-01T11:01:49;99959.97;;;9.24;54.59
41947;BME280;27638;42.184;24.848;2023-02-01T11:04:20;99952.09;;;9.15;53.30
41947;BME280;27638;42.184;24.848;2023-02-01T11:07:08;99944.50;;;9.02;53.63
41947;BME280;27638;42.184;24.848;2023-02-01T11:09:40;99936.00;;;9.08;53.15
41947;BME280;27638;42.184;24.848;2023-02-01T11:12:22;99938.66;;;9.08;53.30
41947;BME280;27638;42.184;24.848;2023-02-01T11:14:48;99923.78;;;9.07;53.60
41947;BME280;27638;42.184;24.848;2023-02-01T11:19:44;99919.25;;;9.17;54.01
41947;BME280;27638;42.184;24.848;2023-02-01T11:22:12;99926.34;;;9.17;53.41
41947;BME280;27638;42.184;24.848;2023-02-01T11:24:39;99915.34;;;9.21;53.68
41947;BME280;27638;42.184;24.848;2023-02-01T11:27:14;99908.94;;;9.24;53.88
41947;BME280;27638;42.184;24.848;2023-02-01T11:29:47;99902.56;;;9.17;51.96
41947;BME280;27638;42.184;24.848;2023-02-01T11:32:17;99900.53;;;9.11;52.99
41947;BME280;27638;42.184;24.848;2023-02-01T11:39:57;99881.28;;;9.01;54.43
41947;BME280;27638;42.184;24.848;2023-02-01T11:42:23;99887.78;;;9.06;53.68
41947;BME280;27638;42.184;24.848;2023-02-01T11:44:49;99890.78;;;9.11;53.72
41947;BME280;27638;42.184;24.848;2023-02-01T11:49:58;99905.81;;;9.11;53.14
41947;BME280;27638;42.184;24.848;2023-02-01T12:21:32;99875.50;;;9.33;53.26
41947;BME280;27638;42.184;24.848;2023-02-01T12:24:29;99880.03;;;9.40;53.52
41947;BME280;27638;42.184;24.848;2023-02-01T12:27:15;99872.00;;;9.32;52.15
41947;BME280;27638;42.184;24.848;2023-02-01T12:43:52;99873.38;;;9.36;52.54
41947;BME280;27638;42.184;24.848;2023-02-01T12:46:26;99866.53;;;9.43;52.57
41947;BME280;27638;42.184;24.848;2023-02-01T12:48:55;99873.69;;;9.51;52.16
41947;BME280;27638;42.184;24.848;2023-02-01T12:51:33;99871.13;;;9.59;52.19
41947;BME280;27638;42.184;24.848;2023-02-01T12:56:40;99863.88;;;9.61;51.58
41947;BME280;27638;42.184;24.848;2023-02-01T12:59:19;99869.84;;;9.63;51.39
41947;BME280;27638;42.184;24.848;2023-02-01T13:01:54;99872.63;;;9.62;50.73
41947;BME280;27638;42.184;24.848;2023-02-01T13:04:28;99877.09;;;9.61;51.23
41947;BME280;27638;42.184;24.848;2023-02-01T13:07:16;99878.16;;;9.50;51.53
41947;BME280;27638;42.184;24.848;2023-02-01T13:09:49;99871.22;;;9.49;52.10
41947;BME280;27638;42.184;24.848;2023-02-01T13:12:20;99879.13;;;9.49;51.19
41947;BME280;27638;42.184;24.848;2023-02-01T13:14:56;99879.06;;;9.59;52.26
41947;BME280;27638;42.184;24.848;2023-02-01T13:17:29;99881.69;;;9.59;51.04
41947;BME280;27638;42.184;24.848;2023-02-01T13:20:07;99876.84;;;9.72;51.98
41947;BME280;27638;42.184;24.848;2023-02-01T13:22:43;99884.72;;;9.64;51.40
41947;BME280;27638;42.184;24.848;2023-02-01T13:25:26;99886.16;;;9.58;51.27
41947;BME280;27638;42.184;24.848;2023-02-01T13:27:54;99889.47;;;9.60;53.15
41947;BME280;27638;42.184;24.848;2023-02-01T13:30:24;99888.66;;;9.60;53.08
41947;BME280;27638;42.184;24.848;2023-02-01T13:33:10;99875.22;;;9.53;53.89
41947;BME280;27638;42.184;24.848;2023-02-01T13:38:31;99893.63;;;9.63;53.14
41947;BME280;27638;42.184;24.848;2023-02-01T13:43:48;99894.63;;;9.62;53.11
41947;BME280;27638;42.184;24.848;2023-02-01T13:46:15;99890.84;;;9.65;49.27
41947;BME280;27638;42.184;24.848;2023-02-01T13:48:51;99897.72;;;9.57;49.05
41947;BME280;27638;42.184;24.848;2023-02-01T13:51:32;99896.44;;;9.62;47.69
41947;BME280;27638;42.184;24.848;2023-02-01T13:53:58;99899.59;;;9.65;48.47
41947;BME280;27638;42.184;24.848;2023-02-01T13:56:24;99897.09;;;9.64;48.31
41947;BME280;27638;42.184;24.848;2023-02-01T13:58:51;99895.44;;;9.63;48.97
41947;BME280;27638;42.184;24.848;2023-02-01T14:03:59;99891.88;;;9.36;47.59
41947;BME280;27638;42.184;24.848;2023-02-01T14:09:15;99899.16;;;9.52;47.38
41947;BME280;27638;42.184;24.848;2023-02-01T14:11:54;99900.66;;;9.54;46.77
41947;BME280;27638;42.184;24.848;2023-02-01T14:22:00;99885.38;;;9.31;48.48
41947;BME280;27638;42.184;24.848;2023-02-01T14:24:51;99905.41;;;9.51;47.75
41947;BME280;27638;42.184;24.848;2023-02-01T14:27:21;99908.28;;;9.57;48.25
41947;BME280;27638;42.184;24.848;2023-02-01T14:29:55;99910.31;;;9.64;49.02
41947;BME280;27638;42.184;24.848;2023-02-01T14:32:31;99906.31;;;9.59;47.70
41947;BME280;27638;42.184;24.848;2023-02-01T14:35:00;99908.00;;;9.60;48.36
41947;BME280;27638;42.184;24.848;2023-02-01T14:37:32;99908.13;;;9.59;48.12
41947;BME280;27638;42.184;24.848;2023-02-01T14:48:39;99902.63;;;9.52;48.80
41947;BME280;27638;42.184;24.848;2023-02-01T14:50:48;99906.84;;;9.45;48.58
41947;BME280;27638;42.184;24.848;2023-02-01T14:53:21;99908.53;;;9.46;48.78
41947;BME280;27638;42.184;24.848;2023-02-01T15:03:50;99903.88;;;9.31;48.90
41947;BME280;27638;42.184;24.848;2023-02-01T15:06:27;99906.72;;;9.19;48.43
41947;BME280;27638;42.184;24.848;2023-02-01T15:09:01;99898.19;;;9.08;48.88
41947;BME280;27638;42.184;24.848;2023-02-01T15:11:27;99912.81;;;9.02;48.72
41947;BME280;27638;42.184;24.848;2023-02-01T15:13:54;99912.88;;;8.92;49.10
41947;BME280;27638;42.184;24.848;2023-02-01T15:16:23;99917.22;;;8.84;49.58
41947;BME280;27638;42.184;24.848;2023-02-01T15:18:49;99911.22;;;8.91;49.50
41947;BME280;27638;42.184;24.848;2023-02-01T15:21:20;99901.88;;;8.97;48.98
41947;BME280;27638;42.184;24.848;2023-02-01T15:23:46;99902.84;;;8.96;49.26
41947;BME280;27638;42.184;24.848;2023-02-01T15:26:31;99903.53;;;8.98;49.39
41947;BME280;27638;42.184;24.848;2023-02-01T15:28:59;99905.19;;;8.99;49.43
41947;BME280;27638;42.184;24.848;2023-02-01T15:31:51;99902.84;;;8.96;49.88
41947;BME280;27638;42.184;24.848;2023-02-01T15:34:18;99896.59;;;8.97;49.96
41947;BME280;27638;42.184;24.848;2023-02-01T15:36:44;99900.06;;;8.98;50.07
41947;BME280;27638;42.184;24.848;2023-02-01T15:42:11;99894.53;;;8.91;50.00
41947;BME280;27638;42.184;24.848;2023-02-01T15:44:42;99892.63;;;8.83;50.32
41947;BME280;27638;42.184;24.848;2023-02-01T15:47:26;99900.47;;;8.75;50.48
41947;BME280;27638;42.184;24.848;2023-02-01T15:49:55;99889.41;;;8.62;51.29
41947;BME280;27638;42.184;24.848;2023-02-01T15:52:48;99899.72;;;8.55;51.25